createdAt,value
2018-08-18T00:00:44.592Z,97595.00
2018-08-18T00:03:14.862Z,97593.00
2018-08-18T00:05:45.215Z,97593.00
2018-08-18T00:08:15.655Z,97598.00
2018-08-18T00:10:45.899Z,97595.00
2018-08-18T00:13:16.172Z,97597.00
2018-08-18T00:15:46.606Z,97595.00
2018-08-18T00:18:17.067Z,97592.00
2018-08-18T00:20:47.683Z,97592.00
2018-08-18T00:23:18.123Z,97594.00
2018-08-18T00:25:48.502Z,97598.00
2018-08-18T00:28:24.883Z,97601.00
2018-08-18T00:30:55.483Z,97602.00
2018-08-18T00:33:26.404Z,97599.00
2018-08-18T00:35:56.576Z,97600.00
2018-08-18T00:38:26.975Z,97604.00
2018-08-18T00:40:57.330Z,97600.00
2018-08-18T00:43:27.583Z,97604.00
2018-08-18T00:45:57.970Z,97605.00
2018-08-18T00:48:28.456Z,97607.00
2018-08-18T00:50:58.937Z,97604.00
2018-08-18T00:53:29.262Z,97606.00
2018-08-18T00:55:59.578Z,97608.00
2018-08-18T00:58:31.258Z,97611.00
2018-08-18T01:01:06.336Z,97610.00
2018-08-18T01:03:43.556Z,97613.00
2018-08-18T01:06:23.934Z,97616.00
2018-08-18T01:08:56.273Z,97614.00
2018-08-18T01:11:26.730Z,97615.00
2018-08-18T01:13:58.366Z,97609.00
2018-08-18T01:16:28.593Z,97609.00
2018-08-18T01:18:59.187Z,97615.00
2018-08-18T01:21:29.632Z,97617.00
2018-08-18T01:24:00.029Z,97617.00
2018-08-18T01:26:33.564Z,97620.00
2018-08-18T01:29:16.470Z,97617.00
2018-08-18T01:31:47.413Z,97619.00
2018-08-18T01:34:17.705Z,97618.00
2018-08-18T01:36:48.236Z,97614.00
2018-08-18T01:39:20.460Z,97614.00
2018-08-18T01:41:50.902Z,97614.00
2018-08-18T01:44:25.338Z,97615.00
2018-08-18T01:46:55.823Z,97610.00
2018-08-18T01:49:30.469Z,97612.00
2018-08-18T01:52:03.142Z,97607.00
2018-08-18T01:54:33.998Z,97608.00
2018-08-18T01:57:07.650Z,97608.00
2018-08-18T01:59:40.163Z,97606.00
2018-08-18T02:02:15.643Z,97603.00
2018-08-18T02:04:47.122Z,97608.00
2018-08-18T02:07:32.563Z,97606.00
2018-08-18T02:10:03.170Z,97613.00
2018-08-18T02:12:33.718Z,97613.00
2018-08-18T02:15:03.934Z,97614.00
2018-08-18T02:17:38.287Z,97612.00
2018-08-18T02:20:11.069Z,97613.00
2018-08-18T02:22:41.540Z,97612.00
2018-08-18T02:25:12.073Z,97615.00
2018-08-18T02:27:42.508Z,97617.00
2018-08-18T02:30:20.340Z,97612.00
2018-08-18T02:32:50.777Z,97618.00
2018-08-18T02:35:22.193Z,97620.00
2018-08-18T02:37:52.628Z,97619.00
2018-08-18T02:40:22.998Z,97622.00
2018-08-18T02:42:53.351Z,97620.00
2018-08-18T02:45:23.777Z,97621.00
2018-08-18T02:48:11.549Z,97625.00
2018-08-18T02:50:46.996Z,97629.00
2018-08-18T02:53:27.578Z,97632.00
2018-08-18T02:55:57.974Z,97631.00
2018-08-18T02:58:28.399Z,97633.00
2018-08-18T03:00:58.757Z,97633.00
2018-08-18T03:03:29.129Z,97635.00
2018-08-18T03:06:17.852Z,97633.00
2018-08-18T03:08:48.109Z,97637.00
2018-08-18T03:11:18.641Z,97639.00
2018-08-18T03:13:48.983Z,97638.00
2018-08-18T03:16:19.313Z,97637.00
2018-08-18T03:18:51.124Z,97640.00
2018-08-18T03:21:29.275Z,97641.00
2018-08-18T03:24:12.982Z,97645.00
2018-08-18T03:26:46.434Z,97641.00
2018-08-18T03:29:17.316Z,97648.00
2018-08-18T03:31:48.065Z,97650.00
2018-08-18T03:34:18.649Z,97644.00
2018-08-18T03:36:52.085Z,97651.00
2018-08-18T03:39:28.154Z,97654.00
2018-08-18T03:42:00.653Z,97657.00
2018-08-18T03:44:31.119Z,97662.00
2018-08-18T03:47:01.425Z,97664.00
2018-08-18T03:49:31.876Z,97669.00
2018-08-18T03:52:02.146Z,97665.00
2018-08-18T03:54:32.463Z,97672.00
2018-08-18T03:57:02.959Z,97669.00
2018-08-18T03:59:40.109Z,97675.00
2018-08-18T04:02:10.668Z,97679.00
2018-08-18T04:04:40.939Z,97678.00
2018-08-18T04:07:11.243Z,97682.00
2018-08-18T04:09:44.497Z,97685.00
2018-08-18T04:12:14.966Z,97687.00
2018-08-18T04:14:45.527Z,97687.00
2018-08-18T04:17:30.332Z,97686.00
2018-08-18T04:20:00.457Z,97689.00
2018-08-18T04:22:30.764Z,97688.00
2018-08-18T04:25:01.219Z,97690.00
2018-08-18T04:27:41.014Z,97696.00
2018-08-18T04:30:15.137Z,97700.00
2018-08-18T04:33:01.619Z,97697.00
2018-08-18T04:35:32.619Z,97700.00
2018-08-18T04:38:06.035Z,97699.00
2018-08-18T04:40:37.539Z,97701.00
2018-08-18T04:43:07.818Z,97700.00
2018-08-18T04:45:38.148Z,97696.00
2018-08-18T04:48:08.425Z,97710.00
2018-08-18T04:50:38.770Z,97707.00
2018-08-18T04:53:09.257Z,97709.00
2018-08-18T04:55:39.848Z,97707.00
2018-08-18T04:58:10.430Z,97707.00
2018-08-18T05:00:40.930Z,97707.00
2018-08-18T05:03:11.547Z,97711.00
2018-08-18T05:05:41.830Z,97717.00
2018-08-18T05:08:12.366Z,97717.00
2018-08-18T05:10:42.618Z,97716.00
2018-08-18T05:13:13.078Z,97715.00
2018-08-18T05:15:43.334Z,97712.00
2018-08-18T05:18:13.762Z,97717.00
2018-08-18T05:20:44.352Z,97718.00
2018-08-18T05:25:32.111Z,97717.00
2018-08-18T05:28:02.564Z,97718.00
2018-08-18T05:30:32.969Z,97712.00
2018-08-18T05:33:03.252Z,97710.00
2018-08-18T05:35:33.678Z,97714.00
2018-08-18T05:38:04.092Z,97714.00
2018-08-18T05:40:35.140Z,97716.00
2018-08-18T05:43:05.497Z,97721.00
2018-08-18T05:45:36.110Z,97728.00
2018-08-18T05:48:06.547Z,97723.00
2018-08-18T05:50:37.007Z,97729.00
2018-08-18T05:53:26.606Z,97729.00
2018-08-18T05:55:57.164Z,97729.00
2018-08-18T05:58:30.114Z,97733.00
2018-08-18T06:01:07.171Z,97730.00
2018-08-18T06:03:37.663Z,97734.00
2018-08-18T06:06:08.303Z,97732.00
2018-08-18T06:08:38.670Z,97727.00
2018-08-18T06:11:08.977Z,97723.00
2018-08-18T06:13:39.389Z,97730.00
2018-08-18T06:16:11.764Z,97731.00
2018-08-18T06:18:42.044Z,97731.00
2018-08-18T06:21:12.420Z,97734.00
2018-08-18T06:23:42.746Z,97732.00
2018-08-18T06:26:13.147Z,97738.00
2018-08-18T06:28:43.553Z,97739.00
2018-08-18T06:31:14.039Z,97740.00
2018-08-18T06:33:44.238Z,97736.00
2018-08-18T06:36:14.600Z,97729.00
2018-08-18T06:38:44.919Z,97733.00
2018-08-18T06:41:15.269Z,97729.00
2018-08-18T06:43:45.547Z,97726.00
2018-08-18T06:46:15.859Z,97729.00
2018-08-18T06:48:46.234Z,97737.00
2018-08-18T06:51:16.656Z,97737.00
2018-08-18T06:53:48.089Z,97741.00
2018-08-18T06:56:18.417Z,97743.00
2018-08-18T06:58:49.007Z,97743.00
2018-08-18T07:01:19.578Z,97741.00
2018-08-18T07:03:49.973Z,97746.00
2018-08-18T07:06:20.188Z,97748.00
2018-08-18T07:08:54.070Z,97748.00
2018-08-18T07:11:24.659Z,97746.00
2018-08-18T07:13:55.132Z,97746.00
2018-08-18T07:16:25.343Z,97747.00
2018-08-18T07:18:56.314Z,97746.00
2018-08-18T07:21:26.737Z,97744.00
2018-08-18T07:23:57.039Z,97750.00
2018-08-18T07:26:27.417Z,97750.00
2018-08-18T07:28:57.938Z,97755.00
2018-08-18T07:31:28.277Z,97752.00
2018-08-18T07:33:58.469Z,97752.00
2018-08-18T07:36:28.818Z,97755.00
2018-08-18T07:38:59.348Z,97751.00
2018-08-18T07:41:29.543Z,97754.00
2018-08-18T07:44:00.069Z,97755.00
2018-08-18T07:46:30.322Z,97750.00
2018-08-18T07:49:00.603Z,97750.00
2018-08-18T07:51:31.164Z,97750.00
2018-08-18T07:54:01.321Z,97756.00
2018-08-18T07:56:32.227Z,97755.00
2018-08-18T07:59:02.632Z,97763.00
2018-08-18T08:01:33.140Z,97764.00
2018-08-18T08:04:03.471Z,97762.00
2018-08-18T08:06:33.870Z,97763.00
2018-08-18T08:09:05.610Z,97764.00
2018-08-18T08:11:35.983Z,97766.00
2018-08-18T08:14:06.533Z,97761.00
2018-08-18T08:16:36.977Z,97763.00
2018-08-18T08:19:07.405Z,97763.00
2018-08-18T08:21:37.738Z,97764.00
2018-08-18T08:24:08.099Z,97770.00
2018-08-18T08:26:38.703Z,97761.00
2018-08-18T08:29:08.929Z,97759.00
2018-08-18T08:31:39.353Z,97757.00
2018-08-18T08:34:09.957Z,97755.00
2018-08-18T08:36:40.547Z,97755.00
2018-08-18T08:39:11.071Z,97754.00
2018-08-18T08:41:41.235Z,97760.00
2018-08-18T08:44:12.320Z,97756.00
2018-08-18T08:46:51.889Z,97758.00
2018-08-18T08:49:22.217Z,97754.00
2018-08-18T08:51:52.614Z,97751.00
2018-08-18T08:54:27.261Z,97749.00
2018-08-18T08:56:57.740Z,97750.00
2018-08-18T08:59:28.107Z,97748.00
2018-08-18T09:01:58.366Z,97746.00
2018-08-18T09:04:28.821Z,97748.00
2018-08-18T09:06:59.192Z,97747.00
2018-08-18T09:09:29.435Z,97741.00
2018-08-18T09:11:59.807Z,97746.00
2018-08-18T09:14:30.213Z,97746.00
2018-08-18T09:17:00.654Z,97742.00
2018-08-18T09:19:31.065Z,97743.00
2018-08-18T09:22:04.345Z,97739.00
2018-08-18T09:24:34.711Z,97743.00
2018-08-18T09:27:07.001Z,97738.00
2018-08-18T09:29:39.434Z,97741.00
2018-08-18T09:32:09.836Z,97742.00
2018-08-18T09:34:45.242Z,97743.00
2018-08-18T09:37:16.308Z,97745.00
2018-08-18T09:39:46.768Z,97746.00
2018-08-18T09:42:18.566Z,97745.00
2018-08-18T09:44:52.633Z,97742.00
2018-08-18T09:47:23.533Z,97745.00
2018-08-18T09:49:54.080Z,97745.00
2018-08-18T09:52:24.538Z,97740.00
2018-08-18T09:54:54.699Z,97735.00
2018-08-18T09:57:25.051Z,97736.00
2018-08-18T09:59:55.475Z,97733.00
2018-08-18T10:02:25.972Z,97738.00
2018-08-18T10:04:56.442Z,97735.00
2018-08-18T10:07:26.946Z,97729.00
2018-08-18T10:09:57.346Z,97731.00
2018-08-18T10:12:27.751Z,97731.00
2018-08-18T10:14:58.342Z,97740.00
2018-08-18T10:17:28.777Z,97737.00
2018-08-18T10:20:00.233Z,97733.00
2018-08-18T10:22:30.541Z,97735.00
2018-08-18T10:25:00.942Z,97737.00
2018-08-18T10:27:31.436Z,97738.00
2018-08-18T10:30:01.812Z,97736.00
2018-08-18T10:32:31.966Z,97744.00
2018-08-18T10:35:05.379Z,97747.00
2018-08-18T10:37:35.826Z,97744.00
2018-08-18T10:40:11.037Z,97734.00
2018-08-18T10:42:41.458Z,97735.00
2018-08-18T10:45:11.737Z,97740.00
2018-08-18T10:47:42.217Z,97740.00
2018-08-18T10:50:37.490Z,97737.00
2018-08-18T10:53:07.935Z,97734.00
2018-08-18T10:55:38.340Z,97736.00
2018-08-18T10:58:09.819Z,97736.00
2018-08-18T11:00:40.251Z,97739.00
2018-08-18T11:03:10.795Z,97734.00
2018-08-18T11:05:40.997Z,97733.00
2018-08-18T11:08:11.356Z,97736.00
2018-08-18T11:10:42.568Z,97736.00
2018-08-18T11:13:12.864Z,97733.00
2018-08-18T11:15:44.334Z,97729.00
2018-08-18T11:18:14.780Z,97725.00
2018-08-18T11:20:45.044Z,97726.00
2018-08-18T11:23:15.843Z,97724.00
2018-08-18T11:25:50.951Z,97727.00
2018-08-18T11:28:22.058Z,97728.00
2018-08-18T11:30:54.278Z,97724.00
2018-08-18T11:33:37.992Z,97720.00
2018-08-18T11:36:09.323Z,97721.00
2018-08-18T11:38:42.532Z,97723.00
2018-08-18T11:41:12.894Z,97720.00
2018-08-18T11:43:48.416Z,97730.00
2018-08-18T11:46:18.957Z,97727.00
2018-08-18T11:48:49.263Z,97727.00
2018-08-18T11:51:19.799Z,97723.00
2018-08-18T11:54:01.502Z,97728.00
2018-08-18T11:56:33.262Z,97722.00
2018-08-18T11:59:21.539Z,97724.00
2018-08-18T12:01:54.951Z,97713.00
2018-08-18T12:04:25.142Z,97711.00
2018-08-18T12:06:58.190Z,97717.00
2018-08-18T12:09:28.966Z,97713.00
2018-08-18T12:11:59.379Z,97714.00
2018-08-18T12:14:29.815Z,97710.00
2018-08-18T12:17:00.130Z,97712.00
2018-08-18T12:19:30.585Z,97705.00
2018-08-18T12:22:00.863Z,97712.00
2018-08-18T12:24:31.361Z,97708.00
2018-08-18T12:27:13.792Z,97714.00
2018-08-18T12:29:44.285Z,97716.00
2018-08-18T12:32:18.624Z,97718.00
2018-08-18T12:34:48.874Z,97711.00
2018-08-18T12:37:20.469Z,97704.00
2018-08-18T12:39:50.989Z,97700.00
2018-08-18T12:42:26.360Z,97693.00
2018-08-18T12:44:58.230Z,97703.00
2018-08-18T12:47:28.356Z,97704.00
2018-08-18T12:49:58.811Z,97700.00
2018-08-18T12:52:34.140Z,97703.00
2018-08-18T12:55:04.692Z,97700.00
2018-08-18T12:57:41.271Z,97692.00
2018-08-18T13:00:11.716Z,97692.00
2018-08-18T13:02:50.005Z,97689.00
2018-08-18T13:05:23.064Z,97694.00
2018-08-18T13:07:55.435Z,97696.00
2018-08-18T13:10:27.503Z,97694.00
2018-08-18T13:12:58.388Z,97682.00
2018-08-18T13:15:28.799Z,97686.00
2018-08-18T13:17:59.242Z,97678.00
2018-08-18T13:20:29.565Z,97684.00
2018-08-18T13:23:06.636Z,97686.00
2018-08-18T13:25:36.998Z,97684.00
2018-08-18T13:28:08.546Z,97677.00
2018-08-18T13:30:38.804Z,97672.00
2018-08-18T13:33:09.225Z,97664.00
2018-08-18T13:35:39.474Z,97671.00
2018-08-18T13:38:19.134Z,97676.00
2018-08-18T13:40:49.499Z,97663.00
2018-08-18T13:43:19.934Z,97657.00
2018-08-18T13:45:50.416Z,97657.00
2018-08-18T13:48:20.826Z,97664.00
2018-08-18T13:50:51.386Z,97654.00
2018-08-18T13:53:21.780Z,97660.00
2018-08-18T13:55:52.084Z,97658.00
2018-08-18T13:58:22.568Z,97660.00
2018-08-18T14:00:52.964Z,97649.00
2018-08-18T14:03:29.146Z,97650.00
2018-08-18T14:05:59.525Z,97653.00
2018-08-18T14:08:29.957Z,97649.00
2018-08-18T14:11:00.451Z,97649.00
2018-08-18T14:13:31.659Z,97645.00
2018-08-18T14:16:02.029Z,97646.00
2018-08-18T14:18:32.410Z,97646.00
2018-08-18T14:21:07.395Z,97648.00
2018-08-18T14:23:37.747Z,97641.00
2018-08-18T14:26:08.009Z,97641.00
2018-08-18T14:28:38.975Z,97637.00
2018-08-18T14:31:09.433Z,97646.00
2018-08-18T14:33:39.701Z,97646.00
2018-08-18T14:36:14.654Z,97645.00
2018-08-18T14:38:46.414Z,97647.00
2018-08-18T14:41:38.534Z,97639.00
2018-08-18T14:44:09.398Z,97648.00
2018-08-18T14:46:40.186Z,97647.00
2018-08-18T14:49:10.218Z,97650.00
2018-08-18T14:51:40.667Z,97647.00
2018-08-18T14:54:11.219Z,97649.00
2018-08-18T14:56:41.564Z,97647.00
2018-08-18T14:59:12.206Z,97652.00
2018-08-18T15:01:42.489Z,97651.00
2018-08-18T15:04:12.703Z,97656.00
2018-08-18T15:06:43.086Z,97659.00
2018-08-18T15:09:31.488Z,97658.00
2018-08-18T15:12:02.529Z,97656.00
2018-08-18T15:14:33.231Z,97657.00
2018-08-18T15:17:03.622Z,97655.00
2018-08-18T15:19:34.716Z,97655.00
2018-08-18T15:22:08.243Z,97657.00
2018-08-18T15:24:38.832Z,97657.00
2018-08-18T15:27:09.505Z,97657.00
2018-08-18T15:29:39.832Z,97659.00
2018-08-18T15:32:10.212Z,97660.00
2018-08-18T15:34:40.623Z,97667.00
2018-08-18T15:37:10.793Z,97660.00
2018-08-18T15:39:40.965Z,97659.00
2018-08-18T15:42:11.411Z,97658.00
2018-08-18T15:44:57.921Z,97665.00
2018-08-18T15:47:29.972Z,97659.00
2018-08-18T15:50:00.427Z,97658.00
2018-08-18T15:52:32.413Z,97658.00
2018-08-18T15:55:04.266Z,97662.00
2018-08-18T15:57:34.627Z,97673.00
2018-08-18T16:00:09.579Z,97674.00
2018-08-18T16:02:40.073Z,97671.00
2018-08-18T16:05:10.354Z,97673.00
2018-08-18T16:07:40.712Z,97669.00
2018-08-18T16:10:10.864Z,97672.00
2018-08-18T16:12:41.295Z,97671.00
2018-08-18T16:15:11.525Z,97672.00
2018-08-18T16:17:41.802Z,97673.00
2018-08-18T16:20:17.241Z,97677.00
2018-08-18T16:22:47.617Z,97674.00
2018-08-18T16:25:31.164Z,97678.00
2018-08-18T16:28:01.591Z,97677.00
2018-08-18T16:30:31.899Z,97681.00
2018-08-18T16:33:14.640Z,97680.00
2018-08-18T16:35:45.543Z,97680.00
2018-08-18T16:38:15.879Z,97677.00
2018-08-18T16:40:46.128Z,97677.00
2018-08-18T16:43:16.482Z,97681.00
2018-08-18T16:45:46.957Z,97685.00
2018-08-18T16:48:17.365Z,97685.00
2018-08-18T16:50:47.831Z,97690.00
2018-08-18T16:53:18.086Z,97693.00
2018-08-18T16:55:48.494Z,97694.00
2018-08-18T16:58:18.875Z,97696.00
2018-08-18T17:01:01.068Z,97692.00
2018-08-18T17:03:32.619Z,97697.00
2018-08-18T17:06:04.461Z,97700.00
2018-08-18T17:08:34.780Z,97701.00
2018-08-18T17:11:05.151Z,97705.00
2018-08-18T17:13:36.444Z,97708.00
2018-08-18T17:16:07.113Z,97710.00
2018-08-18T17:18:37.510Z,97713.00
2018-08-18T17:21:08.488Z,97717.00
2018-08-18T17:23:39.392Z,97729.00
2018-08-18T17:26:09.762Z,97731.00
2018-08-18T17:28:40.272Z,97738.00
2018-08-18T17:31:10.539Z,97742.00
2018-08-18T17:33:40.902Z,97738.00
2018-08-18T17:36:11.891Z,97735.00
2018-08-18T17:38:42.262Z,97744.00
2018-08-18T17:41:12.762Z,97745.00
2018-08-18T17:43:43.033Z,97751.00
2018-08-18T17:46:13.558Z,97749.00
2018-08-18T17:48:49.062Z,97751.00
2018-08-18T17:51:19.461Z,97754.00
2018-08-18T17:53:54.721Z,97750.00
2018-08-18T17:56:24.880Z,97754.00
2018-08-18T17:58:55.225Z,97751.00
2018-08-18T18:01:25.792Z,97748.00
2018-08-18T18:03:56.394Z,97752.00
2018-08-18T18:06:27.012Z,97753.00
2018-08-18T18:08:57.186Z,97750.00
2018-08-18T18:11:27.463Z,97751.00
2018-08-18T18:13:57.985Z,97750.00
2018-08-18T18:16:29.074Z,97756.00
2018-08-18T18:18:59.827Z,97753.00
2018-08-18T18:21:30.215Z,97757.00
2018-08-18T18:24:00.525Z,97756.00
2018-08-18T18:26:31.580Z,97753.00
2018-08-18T18:29:01.741Z,97762.00
2018-08-18T18:31:32.217Z,97764.00
2018-08-18T18:34:03.406Z,97773.00
2018-08-18T18:36:34.560Z,97775.00
2018-08-18T18:39:05.553Z,97774.00
2018-08-18T18:41:35.798Z,97781.00
2018-08-18T18:44:06.055Z,97778.00
2018-08-18T18:46:36.523Z,97787.00
2018-08-18T18:49:24.371Z,97787.00
2018-08-18T18:51:54.664Z,97787.00
2018-08-18T18:54:25.132Z,97795.00
2018-08-18T18:56:55.657Z,97794.00
2018-08-18T18:59:25.897Z,97794.00
2018-08-18T19:01:56.311Z,97799.00
2018-08-18T19:04:26.625Z,97805.00
2018-08-18T19:07:04.908Z,97810.00
2018-08-18T19:09:35.439Z,97815.00
2018-08-18T19:12:05.642Z,97816.00
2018-08-18T19:14:36.081Z,97819.00
2018-08-18T19:17:06.446Z,97816.00
2018-08-18T19:19:36.748Z,97818.00
2018-08-18T19:32:58.990Z,97813.00
2018-08-18T19:35:37.315Z,97828.00
2018-08-18T19:38:07.767Z,97828.00
2018-08-18T19:40:39.353Z,97832.00
2018-08-18T19:43:16.949Z,97835.00
2018-08-18T19:45:47.562Z,97839.00
2018-08-18T19:48:20.972Z,97841.00
2018-08-18T19:50:57.240Z,97845.00
2018-08-18T19:53:33.010Z,97842.00
2018-08-18T19:56:03.731Z,97843.00
2018-08-18T19:58:34.144Z,97844.00
2018-08-18T20:01:04.347Z,97840.00
2018-08-18T20:03:34.698Z,97841.00
2018-08-18T20:06:09.246Z,97842.00
2018-08-18T20:08:39.570Z,97843.00
2018-08-18T20:11:09.912Z,97844.00
2018-08-18T20:13:40.179Z,97848.00
2018-08-18T20:16:10.536Z,97841.00
2018-08-18T20:18:40.884Z,97844.00
2018-08-18T20:21:11.283Z,97841.00
2018-08-18T20:23:41.725Z,97842.00
2018-08-18T20:26:11.990Z,97846.00
2018-08-18T20:28:42.389Z,97849.00
2018-08-18T20:31:12.879Z,97848.00
2018-08-18T20:33:43.067Z,97847.00
2018-08-18T20:36:13.522Z,97852.00
2018-08-18T20:38:46.019Z,97855.00
2018-08-18T20:41:16.297Z,97859.00
2018-08-18T20:43:47.986Z,97857.00
2018-08-18T20:46:18.422Z,97860.00
2018-08-18T20:48:48.874Z,97860.00
2018-08-18T20:51:23.208Z,97868.00
2018-08-18T20:53:53.466Z,97868.00
2018-08-18T20:56:27.023Z,97862.00
2018-08-18T20:58:57.229Z,97866.00
2018-08-18T21:01:27.513Z,97867.00
2018-08-18T21:03:57.936Z,97870.00
2018-08-18T21:06:28.550Z,97874.00
2018-08-18T21:08:59.132Z,97876.00
2018-08-18T21:11:29.454Z,97873.00
2018-08-18T21:13:59.907Z,97876.00
2018-08-18T21:16:30.209Z,97874.00
2018-08-18T21:19:00.637Z,97877.00
2018-08-18T21:21:35.404Z,97882.00
2018-08-18T21:24:06.000Z,97880.00
2018-08-18T21:26:36.284Z,97880.00
2018-08-18T21:29:09.649Z,97884.00
2018-08-18T21:31:40.475Z,97881.00
2018-08-18T21:34:10.860Z,97885.00
2018-08-18T21:36:41.449Z,97883.00
2018-08-18T21:39:11.936Z,97886.00
2018-08-18T21:41:43.745Z,97886.00
2018-08-18T21:44:15.032Z,97882.00
2018-08-18T21:46:45.551Z,97882.00
2018-08-18T21:49:15.982Z,97878.00
2018-08-18T21:51:46.264Z,97883.00
2018-08-18T21:54:16.595Z,97881.00
2018-08-18T21:56:47.058Z,97880.00
2018-08-18T21:59:17.502Z,97877.00
2018-08-18T22:01:47.673Z,97874.00
2018-08-18T22:04:17.962Z,97879.00
2018-08-18T22:06:48.363Z,97877.00
2018-08-18T22:09:32.269Z,97873.00
2018-08-18T22:12:02.698Z,97876.00
2018-08-18T22:14:33.105Z,97877.00
2018-08-18T22:17:03.606Z,97877.00
2018-08-18T22:19:34.399Z,97878.00
2018-08-18T22:22:04.674Z,97874.00
2018-08-18T22:24:34.933Z,97873.00
2018-08-18T22:27:05.390Z,97872.00
2018-08-18T22:29:35.703Z,97873.00
2018-08-18T22:32:10.072Z,97871.00
2018-08-18T22:34:40.546Z,97873.00
2018-08-18T22:37:15.083Z,97872.00
2018-08-18T22:39:45.387Z,97872.00
2018-08-18T22:42:15.867Z,97871.00
2018-08-18T22:44:46.171Z,97870.00
2018-08-18T22:47:16.554Z,97866.00
2018-08-18T22:49:47.020Z,97872.00
2018-08-18T22:52:17.406Z,97874.00
2018-08-18T22:54:47.963Z,97879.00
2018-08-18T22:57:18.551Z,97876.00
2018-08-18T22:59:48.662Z,97875.00
2018-08-18T23:02:19.082Z,97875.00
2018-08-18T23:04:49.658Z,97874.00
2018-08-18T23:07:19.878Z,97874.00
2018-08-18T23:09:50.300Z,97877.00
2018-08-18T23:12:20.900Z,97876.00
2018-08-18T23:14:51.065Z,97877.00
2018-08-18T23:17:21.500Z,97888.00
2018-08-18T23:19:51.823Z,97881.00
2018-08-18T23:29:41.362Z,97891.00
2018-08-18T23:32:17.414Z,97889.00
2018-08-18T23:34:47.715Z,97887.00
2018-08-18T23:37:19.850Z,97894.00
2018-08-18T23:39:55.610Z,97893.00
2018-08-18T23:42:26.737Z,97893.00
2018-08-18T23:44:57.330Z,97890.00
2018-08-18T23:47:27.690Z,97894.00
2018-08-18T23:49:57.953Z,97891.00
2018-08-18T23:52:28.251Z,97893.00
2018-08-18T23:54:58.599Z,97890.00
2018-08-18T23:57:29.030Z,97886.00
2018-08-18T23:59:59.379Z,97885.00
